Time;durP1;ratioP1;P1;durP2;ratioP2;P2;SDS_P1;SDS_P2;PMS_P1;PMS_P2;Temp;Humidity;BMP_temperature;BMP_pressure;BME280_temperature;BME280_humidity;BME280_pressure;Samples;Min_cycle;Max_cycle;Signal;HPM_P1;HPM_P2
2023/02/03 00:00:42;;;;;;;14.55;7.20;;;9.40;99.90;;;;;;4095573;28;20055;-69
2023/02/03 00:02:43;;;;;;;12.43;7.15;;;9.40;99.90;;;;;;4098142;28;20090;-69
2023/02/03 00:04:43;;;;;;;11.45;7.68;;;9.30;99.90;;;;;;4094923;28;20502;-69
2023/02/03 00:06:44;;;;;;;12.55;7.05;;;9.30;99.90;;;;;;4095221;28;20491;-69
2023/02/03 00:08:45;;;;;;;14.70;7.20;;;9.30;99.90;;;;;;4097140;28;20062;-70
2023/02/03 00:10:46;;;;;;;20.45;8.00;;;9.30;99.90;;;;;;4094871;28;20134;-69
2023/02/03 00:12:51;;;;;;;14.93;8.18;;;9.30;99.90;;;;;;4098614;28;20031;-68
2023/02/03 00:14:52;;;;;;;15.60;7.72;;;9.30;99.90;;;;;;4094647;28;20114;-69
2023/02/03 00:16:52;;;;;;;13.35;7.82;;;9.30;99.90;;;;;;4088096;28;20043;-69
2023/02/03 00:18:53;;;;;;;14.23;7.90;;;9.30;99.90;;;;;;4093434;28;20031;-69
2023/02/03 00:20:53;;;;;;;16.20;8.27;;;9.40;99.90;;;;;;4094465;28;20494;-68
2023/02/03 00:22:54;;;;;;;16.40;7.75;;;9.30;99.90;;;;;;4095497;28;20066;-69
2023/02/03 00:24:54;;;;;;;15.60;8.00;;;9.30;99.90;;;;;;4095845;28;20042;-69
2023/02/03 00:26:55;;;;;;;18.15;9.85;;;9.30;99.90;;;;;;4089607;28;20027;-69
2023/02/03 00:28:59;;;;;;;15.55;8.38;;;9.30;99.90;;;;;;4095222;28;20027;-69
2023/02/03 00:31:00;;;;;;;13.77;8.20;;;9.30;99.90;;;;;;4095555;28;20035;-69
2023/02/03 00:33:01;;;;;;;14.40;8.30;;;9.30;99.90;;;;;;4094655;28;20034;-69
2023/02/03 00:35:01;;;;;;;10.90;7.65;;;9.30;99.90;;;;;;4097777;28;20487;-69
2023/02/03 00:37:02;;;;;;;16.02;8.80;;;9.30;99.90;;;;;;4094239;28;20031;-69
2023/02/03 00:39:02;;;;;;;16.30;8.13;;;9.30;99.90;;;;;;4090255;28;20027;-69
2023/02/03 00:41:03;;;;;;;17.25;9.35;;;9.40;99.90;;;;;;4084075;28;20028;-69
2023/02/03 00:43:04;;;;;;;15.00;8.68;;;9.40;99.90;;;;;;4094606;28;20034;-69
2023/02/03 00:45:04;;;;;;;17.05;9.18;;;9.40;99.90;;;;;;4097881;28;20023;-69
2023/02/03 00:47:05;;;;;;;15.55;8.45;;;9.40;99.90;;;;;;4094274;28;20070;-69
2023/02/03 00:49:06;;;;;;;15.43;9.88;;;9.40;99.90;;;;;;4095786;28;20032;-69
2023/02/03 00:51:07;;;;;;;13.98;8.52;;;9.40;99.90;;;;;;4098118;28;20058;-69
2023/02/03 00:53:07;;;;;;;17.08;8.88;;;9.40;99.90;;;;;;4098867;28;20034;-69
2023/02/03 00:55:08;;;;;;;16.35;8.95;;;9.40;99.90;;;;;;4094307;28;20042;-71
2023/02/03 00:57:09;;;;;;;17.80;8.50;;;9.40;99.90;;;;;;4095335;28;20077;-69
2023/02/03 00:59:09;;;;;;;12.52;7.82;;;9.40;99.90;;;;;;4095350;28;20035;-69
2023/02/03 01:01:10;;;;;;;15.95;8.50;;;9.40;99.90;;;;;;4094602;28;20039;-69
2023/02/03 01:03:11;;;;;;;15.73;9.27;;;9.40;99.90;;;;;;4096612;28;20490;-69
2023/02/03 01:05:12;;;;;;;13.40;8.32;;;9.40;99.90;;;;;;4094144;28;20043;-70
2023/02/03 01:07:12;;;;;;;18.27;9.48;;;9.40;99.90;;;;;;4093162;28;20483;-69
2023/02/03 01:09:13;;;;;;;10.90;7.88;;;9.40;99.90;;;;;;4095564;28;20043;-69
2023/02/03 01:11:18;;;;;;;15.23;9.00;;;9.40;99.90;;;;;;4094785;28;20039;-69
2023/02/03 01:13:18;;;;;;;15.93;8.38;;;9.40;99.90;;;;;;4094331;28;20044;-69
2023/02/03 01:15:19;;;;;;;24.52;10.80;;;9.40;99.90;;;;;;4092870;28;20094;-69
2023/02/03 01:17:19;;;;;;;17.80;8.43;;;9.40;99.90;;;;;;4095308;28;20047;-69
2023/02/03 01:19:20;;;;;;;15.68;8.40;;;9.40;99.90;;;;;;4090828;28;20530;-69
2023/02/03 01:21:23;;;;;;;12.48;8.43;;;9.40;99.90;;;;;;4095079;28;20074;-69
2023/02/03 01:23:24;;;;;;;12.80;7.95;;;9.40;99.90;;;;;;4093250;28;20466;-68
2023/02/03 01:25:24;;;;;;;22.48;9.15;;;9.40;99.90;;;;;;4094354;28;20047;-69
2023/02/03 01:27:25;;;;;;;15.98;8.15;;;9.40;99.90;;;;;;4094385;28;20394;-69
2023/02/03 01:29:25;;;;;;;14.25;7.25;;;9.40;99.90;;;;;;4096483;28;20039;-70
2023/02/03 01:31:34;;;;;;;16.95;8.25;;;9.40;99.90;;;;;;4094978;28;20043;-70
2023/02/03 01:33:34;;;;;;;15.30;7.25;;;9.40;99.90;;;;;;4096777;28;20046;-68
2023/02/03 01:35:35;;;;;;;13.70;8.05;;;9.50;99.90;;;;;;4096664;28;20509;-68
2023/02/03 01:37:35;;;;;;;17.80;8.18;;;9.40;99.90;;;;;;4096618;28;20484;-69
2023/02/03 01:39:36;;;;;;;11.73;7.00;;;9.50;99.90;;;;;;4095541;28;20082;-69
2023/02/03 01:41:38;;;;;;;14.60;7.30;;;9.40;99.90;;;;;;4096034;28;20443;-69
2023/02/03 01:43:42;;;;;;;16.27;7.20;;;9.40;99.90;;;;;;4094041;28;20042;-69
2023/02/03 01:45:44;;;;;;;20.15;6.38;;;9.50;99.90;;;;;;4095533;28;24350;-69
2023/02/03 01:47:45;;;;;;;15.30;6.60;;;9.40;99.90;;;;;;4093618;28;20118;-69
2023/02/03 01:50:12;;;;;;;16.38;7.13;;;9.50;99.90;;;;;;4098836;28;20031;-70
2023/02/03 01:52:13;;;;;;;17.20;7.75;;;9.50;99.90;;;;;;4094061;28;20067;-70
2023/02/03 01:54:19;;;;;;;15.25;7.38;;;9.50;99.90;;;;;;4094536;28;20026;-69
2023/02/03 01:56:21;;;;;;;14.63;6.68;;;9.50;99.90;;;;;;4096353;28;20067;-69
2023/02/03 01:58:25;;;;;;;11.40;6.65;;;9.40;99.90;;;;;;4087351;28;20491;-69
2023/02/03 02:00:26;;;;;;;18.00;7.13;;;9.50;99.90;;;;;;4092957;28;20465;-69
2023/02/03 02:02:27;;;;;;;11.75;6.68;;;9.40;99.90;;;;;;4087904;28;20072;-69
2023/02/03 02:04:38;;;;;;;13.45;6.43;;;9.40;99.90;;;;;;4092628;28;20039;-69
2023/02/03 02:06:39;;;;;;;15.48;6.32;;;9.50;99.90;;;;;;4091063;28;20039;-69
2023/02/03 02:08:43;;;;;;;14.52;6.80;;;9.50;99.90;;;;;;4092235;28;20117;-69
2023/02/03 02:10:44;;;;;;;16.30;6.35;;;9.50;99.90;;;;;;4090666;28;20506;-69
2023/02/03 02:12:45;;;;;;;10.77;6.00;;;9.50;99.90;;;;;;4092567;29;20038;-69
2023/02/03 02:14:47;;;;;;;12.45;6.20;;;9.50;99.90;;;;;;4084756;28;20066;-69
2023/02/03 02:17:25;;;;;;;10.82;6.15;;;9.50;99.90;;;;;;4091030;28;20050;-69
2023/02/03 02:19:38;;;;;;;12.23;5.85;;;9.50;99.90;;;;;;4079770;28;20121;-70
2023/02/03 02:21:51;;;;;;;12.07;5.70;;;9.50;99.90;;;;;;4090435;28;20119;-69
2023/02/03 02:24:24;;;;;;;11.95;5.07;;;9.40;99.90;;;;;;4094141;28;20027;-69
2023/02/03 02:26:49;;;;;;;10.43;4.78;;;9.40;99.90;;;;;;4073370;29;20442;-69
2023/02/03 02:29:48;;;;;;;11.65;4.95;;;9.40;99.90;;;;;;4099114;28;20027;-69
2023/02/03 02:31:55;;;;;;;16.98;5.30;;;9.50;99.90;;;;;;4005952;29;20044;-69
2023/02/03 02:34:20;;;;;;;11.40;4.45;;;9.40;99.90;;;;;;4082940;28;20041;-68
2023/02/03 02:36:32;;;;;;;13.73;4.95;;;9.50;99.90;;;;;;4096065;28;20040;-69
2023/02/03 02:38:44;;;;;;;13.50;4.35;;;9.50;99.90;;;;;;4080523;29;20181;-70
2023/02/03 02:40:50;;;;;;;9.55;4.38;;;9.40;99.90;;;;;;4097530;28;20049;-69
2023/02/03 02:43:12;;;;;;;10.43;4.18;;;9.50;99.90;;;;;;4099289;28;20031;-69
2023/02/03 02:45:40;;;;;;;13.85;4.20;;;9.50;99.90;;;;;;4097117;28;20071;-70
2023/02/03 02:47:41;;;;;;;13.35;4.72;;;9.50;99.90;;;;;;4090789;28;20098;-69
2023/02/03 02:50:05;;;;;;;11.15;4.10;;;9.50;99.90;;;;;;4096817;28;20059;-69
2023/02/03 02:52:07;;;;;;;8.27;3.67;;;9.50;99.90;;;;;;4094121;28;20455;-69
2023/02/03 02:54:12;;;;;;;9.17;3.73;;;9.50;99.90;;;;;;4098727;28;20506;-70
2023/02/03 02:56:16;;;;;;;10.20;3.95;;;9.50;99.90;;;;;;4096758;28;20114;-70
2023/02/03 02:58:19;;;;;;;8.90;3.90;;;9.50;99.90;;;;;;4098107;28;20122;-69
2023/02/03 03:00:21;;;;;;;8.90;3.60;;;9.50;99.90;;;;;;4097519;28;20063;-70
2023/02/03 03:02:30;;;;;;;10.40;3.53;;;9.50;99.90;;;;;;4093400;28;20118;-70
2023/02/03 03:04:33;;;;;;;11.90;3.78;;;9.50;99.90;;;;;;4098062;28;20085;-70
2023/02/03 03:06:47;;;;;;;6.97;3.28;;;9.50;99.90;;;;;;4095328;28;20039;-69
2023/02/03 03:08:51;;;;;;;8.13;3.70;;;9.50;99.90;;;;;;4100726;28;20411;-68
2023/02/03 03:10:54;;;;;;;11.45;3.60;;;9.50;99.90;;;;;;4098845;28;20061;-70
2023/02/03 03:12:58;;;;;;;;;;;9.50;99.90;;;;;;4097207;28;20088;-69
2023/02/03 03:15:11;;;;;;;8.10;3.47;;;9.50;99.90;;;;;;4089523;28;19910;-70
2023/02/03 03:17:26;;;;;;;7.75;3.38;;;9.50;99.90;;;;;;4090253;28;20082;-70
2023/02/03 03:19:33;;;;;;;9.23;3.22;;;9.50;99.90;;;;;;4096157;28;20043;-69
2023/02/03 03:21:40;;;;;;;11.52;3.47;;;9.50;99.90;;;;;;4099691;28;20038;-70
2023/02/03 03:23:45;;;;;;;7.15;3.17;;;9.40;99.90;;;;;;4097427;28;20034;-70
2023/02/03 03:25:50;;;;;;;9.85;3.53;;;9.50;99.90;;;;;;4097266;28;20121;-70
2023/02/03 03:27:55;;;;;;;8.02;3.55;;;9.40;99.90;;;;;;4098309;28;20118;-70
2023/02/03 03:30:02;;;;;;;9.73;3.13;;;9.40;99.90;;;;;;4097338;28;20046;-70
2023/02/03 03:32:03;;;;;;;10.65;3.58;;;9.50;99.90;;;;;;4095911;28;20091;-70
2023/02/03 03:34:04;;;;;;;10.57;3.55;;;9.50;99.90;;;;;;4094411;28;20075;-70
2023/02/03 03:36:24;;;;;;;8.38;3.10;;;9.50;99.90;;;;;;4094928;28;20035;-70
2023/02/03 03:38:37;;;;;;;9.50;3.63;;;9.40;99.90;;;;;;4078884;29;20042;-70
2023/02/03 03:40:48;;;;;;;5.47;2.70;;;9.50;99.90;;;;;;4099502;28;20054;-70
2023/02/03 03:42:51;;;;;;;7.38;3.53;;;9.50;99.90;;;;;;4093489;28;20055;-70
2023/02/03 03:45:05;;;;;;;7.88;3.28;;;9.40;99.90;;;;;;4100671;28;20102;-70
2023/02/03 03:47:22;;;;;;;9.10;3.53;;;9.40;99.90;;;;;;4093943;28;20055;-70
2023/02/03 03:49:24;;;;;;;6.93;2.95;;;9.50;99.90;;;;;;4095796;28;20065;-70
2023/02/03 03:51:30;;;;;;;15.32;3.70;;;9.50;99.90;;;;;;4093290;28;20058;-69
2023/02/03 03:53:34;;;;;;;10.02;3.47;;;9.50;99.90;;;;;;4097340;28;20043;-70
2023/02/03 03:55:35;;;;;;;5.93;2.67;;;9.50;99.90;;;;;;4096447;28;20043;-70
2023/02/03 03:57:41;;;;;;;9.25;3.33;;;9.50;99.90;;;;;;4097797;28;20039;-70
2023/02/03 03:59:47;;;;;;;11.25;3.40;;;9.50;99.90;;;;;;4099382;28;20081;-70
2023/02/03 04:01:49;;;;;;;10.43;3.63;;;9.50;99.90;;;;;;4096903;28;20336;-71
2023/02/03 04:03:55;;;;;;;10.82;3.60;;;9.50;99.90;;;;;;4098197;28;20039;-70
2023/02/03 04:05:56;;;;;;;12.35;3.65;;;9.50;99.90;;;;;;4094750;28;20070;-70
2023/02/03 04:07:57;;;;;;;11.77;3.42;;;9.40;99.90;;;;;;4099589;28;20031;-70
2023/02/03 04:09:58;;;;;;;10.07;3.65;;;9.50;99.90;;;;;;4094915;28;20043;-71
2023/02/03 04:12:01;;;;;;;5.90;3.33;;;9.50;99.90;;;;;;4096632;28;20603;-71
2023/02/03 04:14:03;;;;;;;11.27;3.95;;;9.50;99.90;;;;;;4095150;28;20038;-71
2023/02/03 04:16:03;;;;;;;7.75;2.70;;;9.50;99.90;;;;;;4091792;28;20086;-71
2023/02/03 04:18:04;;;;;;;10.48;3.22;;;9.50;99.90;;;;;;4095430;28;20028;-70
2023/02/03 04:20:05;;;;;;;7.90;3.53;;;9.50;99.90;;;;;;4094692;28;20065;-72
2023/02/03 04:22:06;;;;;;;11.70;4.20;;;9.50;99.90;;;;;;4097615;28;20066;-71
2023/02/03 04:24:07;;;;;;;6.97;3.53;;;9.50;99.90;;;;;;4095860;28;20094;-71
2023/02/03 04:26:07;;;;;;;11.02;3.33;;;9.50;99.90;;;;;;4095498;28;20047;-71
2023/02/03 04:28:08;;;;;;;7.40;3.35;;;9.50;99.90;;;;;;4095678;28;20082;-71
2023/02/03 04:30:09;;;;;;;10.63;3.80;;;9.50;99.90;;;;;;4095132;29;20035;-72
2023/02/03 04:32:10;;;;;;;10.98;3.97;;;9.50;99.90;;;;;;4096718;28;20031;-71
2023/02/03 04:34:11;;;;;;;7.47;3.17;;;9.50;99.90;;;;;;4094182;28;20039;-71
2023/02/03 04:36:11;;;;;;;9.15;3.70;;;9.50;99.90;;;;;;4094108;28;20027;-71
2023/02/03 04:38:12;;;;;;;8.88;3.08;;;9.60;99.90;;;;;;4097917;28;20491;-71
2023/02/03 04:40:12;;;;;;;9.98;3.40;;;9.50;99.90;;;;;;4085336;29;20066;-71
2023/02/03 04:42:13;;;;;;;11.10;3.67;;;9.60;99.90;;;;;;4097096;28;20035;-71
2023/02/03 04:44:13;;;;;;;9.40;3.03;;;9.60;99.90;;;;;;4095158;28;20046;-71
2023/02/03 04:46:14;;;;;;;9.20;3.42;;;9.50;99.90;;;;;;4096114;28;20044;-71
2023/02/03 04:48:15;;;;;;;8.02;3.17;;;9.50;99.90;;;;;;4095498;28;20070;-71
2023/02/03 04:50:15;;;;;;;12.02;3.97;;;9.50;99.90;;;;;;4093967;28;20035;-71
2023/02/03 04:52:16;;;;;;;8.63;2.88;;;9.60;99.90;;;;;;4096319;28;20490;-71
2023/02/03 04:54:16;;;;;;;8.88;3.20;;;9.50;99.90;;;;;;4095016;28;20039;-71
2023/02/03 04:56:17;;;;;;;5.88;2.42;;;9.50;99.90;;;;;;4093537;28;20031;-71
2023/02/03 04:58:18;;;;;;;8.27;2.80;;;9.60;99.90;;;;;;4094208;28;20039;-71
2023/02/03 05:00:19;;;;;;;9.13;3.25;;;9.60;99.90;;;;;;4094885;28;20035;-71
2023/02/03 05:02:19;;;;;;;5.30;2.70;;;9.60;99.90;;;;;;4092483;28;20450;-72
2023/02/03 05:04:20;;;;;;;14.27;3.22;;;9.60;99.90;;;;;;4087942;28;20028;-71
2023/02/03 05:06:25;;;;;;;9.93;3.00;;;9.50;99.90;;;;;;4088970;28;20073;-71
2023/02/03 05:08:25;;;;;;;8.25;3.03;;;9.50;99.90;;;;;;4094792;28;20046;-71
2023/02/03 05:10:26;;;;;;;9.18;2.83;;;9.50;99.90;;;;;;4093154;28;20627;-70
2023/02/03 05:12:26;;;;;;;9.73;3.08;;;9.50;99.90;;;;;;4093263;28;20121;-70
2023/02/03 05:14:27;;;;;;;11.40;2.75;;;9.50;99.90;;;;;;4092709;28;20035;-70
2023/02/03 05:16:27;;;;;;;6.35;2.63;;;9.50;99.90;;;;;;4093570;28;20050;-71
2023/02/03 05:18:28;;;;;;;5.90;2.60;;;9.50;99.90;;;;;;4087089;28;20044;-70
2023/02/03 05:20:28;;;;;;;11.82;2.75;;;9.50;99.90;;;;;;4085588;28;20066;-71
2023/02/03 05:22:29;;;;;;;10.63;3.22;;;9.50;99.90;;;;;;4094375;28;20608;-71
2023/02/03 05:24:30;;;;;;;7.97;2.72;;;9.50;99.90;;;;;;4092239;28;20598;-71
2023/02/03 05:26:30;;;;;;;12.07;2.88;;;9.50;99.90;;;;;;4092366;28;20561;-71
2023/02/03 05:28:31;;;;;;;10.32;2.33;;;9.60;99.90;;;;;;4092293;28;20386;-71
2023/02/03 05:30:31;;;;;;;5.90;2.30;;;9.50;99.90;;;;;;4093577;28;20035;-72
2023/02/03 05:32:32;;;;;;;8.32;2.53;;;9.50;99.90;;;;;;4077859;29;20038;-71
2023/02/03 05:34:32;;;;;;;8.52;2.85;;;9.60;99.90;;;;;;4093229;28;20039;-71
2023/02/03 05:36:33;;;;;;;10.30;2.63;;;9.50;99.90;;;;;;4095226;28;20067;-71
2023/02/03 05:38:33;;;;;;;8.73;2.65;;;9.60;99.90;;;;;;4093428;28;20039;-71
2023/02/03 05:42:53;;;;;;;8.35;2.50;;;9.60;99.90;;;;;;4093747;28;20047;-71
2023/02/03 05:44:54;;;;;;;10.13;3.30;;;9.60;99.90;;;;;;4090794;28;20117;-72
2023/02/03 05:46:56;;;;;;;10.27;2.75;;;9.60;99.90;;;;;;4089335;28;20127;-73
2023/02/03 05:48:57;;;;;;;8.25;2.10;;;9.60;99.90;;;;;;4092580;28;20105;-72
2023/02/03 05:50:58;;;;;;;10.80;2.65;;;9.60;99.90;;;;;;4092029;28;20035;-71
2023/02/03 05:53:00;;;;;;;9.95;2.60;;;9.60;99.90;;;;;;4092858;28;20059;-71
2023/02/03 05:55:00;;;;;;;6.85;2.53;;;9.60;99.90;;;;;;4091167;28;20050;-71
2023/02/03 05:57:01;;;;;;;9.00;2.53;;;9.60;99.90;;;;;;4095305;28;20043;-71
2023/02/03 05:59:03;;;;;;;11.18;2.95;;;9.60;99.90;;;;;;4093709;28;20043;-71
2023/02/03 06:01:04;;;;;;;8.10;2.63;;;9.60;99.90;;;;;;4092254;28;20058;-71
2023/02/03 06:03:04;;;;;;;12.65;2.90;;;9.60;99.90;;;;;;4096648;28;20066;-71
2023/02/03 06:05:05;;;;;;;11.63;2.50;;;9.60;99.90;;;;;;4091843;28;20034;-71
2023/02/03 06:07:06;;;;;;;7.05;2.40;;;9.60;99.90;;;;;;4098363;28;20035;-71
2023/02/03 06:09:07;;;;;;;8.93;2.83;;;9.60;99.90;;;;;;4094109;28;20526;-71
2023/02/03 06:11:09;;;;;;;8.27;2.17;;;9.60;99.90;;;;;;4093078;28;20035;-72
2023/02/03 06:13:11;;;;;;;7.05;2.20;;;9.60;99.90;;;;;;4090760;28;20097;-70
2023/02/03 06:15:13;;;;;;;7.50;2.28;;;9.60;99.90;;;;;;4086920;28;20070;-71
2023/02/03 06:17:13;;;;;;;13.05;2.95;;;9.60;99.90;;;;;;4083960;28;20514;-71
2023/02/03 06:19:14;;;;;;;6.20;2.35;;;9.60;99.90;;;;;;4091700;28;20023;-71
2023/02/03 06:21:14;;;;;;;7.57;2.65;;;9.60;99.90;;;;;;4082534;28;20044;-72
2023/02/03 06:23:16;;;;;;;9.10;2.72;;;9.60;99.90;;;;;;4081270;28;20090;-73
2023/02/03 06:25:16;;;;;;;7.47;2.47;;;9.60;99.90;;;;;;4073994;29;20091;-72
2023/02/03 06:27:17;;;;;;;6.43;2.53;;;9.60;99.90;;;;;;4093195;28;20474;-72
2023/02/03 06:29:17;;;;;;;9.45;2.53;;;9.60;99.90;;;;;;4086902;28;20040;-72
2023/02/03 06:31:18;;;;;;;7.38;2.53;;;9.60;99.90;;;;;;4086902;28;20066;-72
2023/02/03 06:33:19;;;;;;;11.77;2.50;;;9.60;99.90;;;;;;4076398;29;20115;-70
2023/02/03 06:35:19;;;;;;;12.13;4.05;;;9.60;99.90;;;;;;4088946;28;20031;-72
2023/02/03 06:37:20;;;;;;;10.60;2.38;;;9.60;99.90;;;;;;4093994;28;20039;-71
2023/02/03 06:39:21;;;;;;;8.40;2.80;;;9.60;99.90;;;;;;4089260;28;20451;-71
2023/02/03 06:41:26;;;;;;;6.47;2.00;;;9.60;99.90;;;;;;4090902;28;20384;-71
2023/02/03 06:43:26;;;;;;;7.57;2.35;;;9.60;99.90;;;;;;4078248;29;20538;-70
2023/02/03 06:45:27;;;;;;;5.68;2.25;;;9.60;99.90;;;;;;4089679;28;20161;-72
2023/02/03 06:47:28;;;;;;;9.95;2.40;;;9.60;99.90;;;;;;4091339;28;20190;-71
2023/02/03 06:49:29;;;;;;;15.70;2.92;;;9.60;99.90;;;;;;4091732;28;20035;-70
2023/02/03 06:51:29;;;;;;;8.20;2.67;;;9.60;99.90;;;;;;4085417;28;20027;-69
2023/02/03 06:53:30;;;;;;;9.95;2.38;;;9.60;99.90;;;;;;4087674;28;20347;-71
2023/02/03 06:55:31;;;;;;;17.13;2.83;;;9.60;99.90;;;;;;4089578;28;20035;-71
2023/02/03 06:57:32;;;;;;;9.07;2.70;;;9.60;99.90;;;;;;4089727;28;20039;-70
2023/02/03 06:59:32;;;;;;;9.82;2.97;;;9.60;99.90;;;;;;4084405;28;20032;-70
2023/02/03 07:01:33;;;;;;;8.43;2.28;;;9.60;99.90;;;;;;4082617;28;20031;-70
2023/02/03 07:03:33;;;;;;;5.85;2.17;;;9.60;99.90;;;;;;4092942;28;20128;-71
2023/02/03 07:05:35;;;;;;;7.22;2.55;;;9.60;99.90;;;;;;4068591;29;20036;-71
2023/02/03 07:07:38;;;;;;;10.13;2.15;;;9.60;99.90;;;;;;4075452;28;20063;-70
2023/02/03 07:09:39;;;;;;;7.55;2.50;;;9.60;99.90;;;;;;4091042;28;20067;-70
2023/02/03 07:11:39;;;;;;;6.63;2.10;;;9.60;99.90;;;;;;4090817;28;20043;-71
2023/02/03 07:13:40;;;;;;;8.27;2.45;;;9.60;99.90;;;;;;4092912;28;20028;-71
2023/02/03 07:15:41;;;;;;;10.00;2.50;;;9.70;99.90;;;;;;4091357;28;20234;-71
2023/02/03 07:17:41;;;;;;;10.73;1.95;;;9.70;99.90;;;;;;4096409;28;20031;-71
2023/02/03 07:19:42;;;;;;;7.60;2.47;;;9.70;99.90;;;;;;4094077;28;20482;-71
2023/02/03 07:21:42;;;;;;;7.45;2.45;;;9.70;99.90;;;;;;4093804;28;20035;-71
2023/02/03 07:23:46;;;;;;;9.27;2.50;;;9.70;99.90;;;;;;4094689;28;20042;-71
2023/02/03 07:25:46;;;;;;;7.47;2.40;;;9.70;99.90;;;;;;4091741;28;20098;-71
2023/02/03 07:27:47;;;;;;;10.48;2.78;;;9.70;99.90;;;;;;4094515;28;20040;-71
2023/02/03 07:29:47;;;;;;;10.77;2.20;;;9.70;99.90;;;;;;4094559;28;20031;-71
2023/02/03 07:31:48;;;;;;;9.45;2.35;;;9.60;99.90;;;;;;4091402;28;20047;-71
2023/02/03 07:33:49;;;;;;;5.80;2.13;;;9.70;99.90;;;;;;4086924;28;20031;-71
2023/02/03 07:35:53;;;;;;;6.43;2.38;;;9.70;99.90;;;;;;4091930;28;20142;-71
2023/02/03 07:37:53;;;;;;;9.45;2.80;;;9.70;99.90;;;;;;4093548;28;20478;-71
2023/02/03 07:39:54;;;;;;;6.55;1.65;;;9.70;99.90;;;;;;4093814;28;20024;-71
2023/02/03 07:41:54;;;;;;;9.18;2.33;;;9.70;99.90;;;;;;4090721;28;20039;-71
2023/02/03 07:43:55;;;;;;;6.97;2.00;;;9.70;99.90;;;;;;4093586;28;20023;-71
2023/02/03 07:45:55;;;;;;;8.80;2.15;;;9.70;99.90;;;;;;4093809;28;20549;-70
2023/02/03 07:47:56;;;;;;;5.32;1.80;;;9.70;99.90;;;;;;4093652;28;20044;-71
2023/02/03 07:49:57;;;;;;;6.93;1.95;;;9.70;99.90;;;;;;4093778;28;20050;-71
2023/02/03 07:51:57;;;;;;;6.30;1.98;;;9.70;99.90;;;;;;4092016;28;20115;-68
2023/02/03 07:53:58;;;;;;;8.23;2.38;;;9.70;99.90;;;;;;4093805;28;20027;-70
2023/02/03 07:56:00;;;;;;;9.77;2.10;;;9.70;99.90;;;;;;4076198;28;20055;-70
2023/02/03 07:58:00;;;;;;;9.85;2.10;;;9.70;99.90;;;;;;4054468;28;20410;-71
2023/02/03 08:00:02;;;;;;;6.38;1.88;;;9.70;99.90;;;;;;4068365;28;20026;-71
2023/02/03 08:02:03;;;;;;;10.77;2.78;;;9.70;99.90;;;;;;4051444;28;20655;-70
2023/02/03 08:04:04;;;;;;;6.90;2.13;;;9.70;99.90;;;;;;4059418;28;20043;-70
2023/02/03 08:06:05;;;;;;;6.95;2.15;;;9.70;99.90;;;;;;4046868;28;20763;-71
2023/02/03 08:08:06;;;;;;;5.82;1.80;;;9.70;99.90;;;;;;4064460;28;20644;-71
2023/02/03 08:10:07;;;;;;;8.15;2.30;;;9.70;99.90;;;;;;4067285;28;20308;-72
2023/02/03 08:12:08;;;;;;;5.27;2.00;;;9.70;99.90;;;;;;4054400;28;20043;-71
2023/02/03 08:14:09;;;;;;;6.22;2.15;;;9.70;99.90;;;;;;4067997;28;20150;-71
2023/02/03 08:16:09;;;;;;;11.85;2.17;;;9.70;99.90;;;;;;4066588;28;20039;-71
2023/02/03 08:18:11;;;;;;;6.82;2.28;;;9.70;99.90;;;;;;4084696;28;20031;-71
2023/02/03 08:20:12;;;;;;;7.03;2.00;;;9.70;99.90;;;;;;4092891;28;20035;-71
2023/02/03 08:22:15;;;;;;;10.98;2.47;;;9.70;99.90;;;;;;4092303;28;20106;-72
2023/02/03 08:24:16;;;;;;;6.63;1.95;;;9.70;99.90;;;;;;4091958;28;20035;-71
2023/02/03 08:26:17;;;;;;;8.15;2.13;;;9.70;99.90;;;;;;4090787;28;20043;-72
2023/02/03 08:28:18;;;;;;;5.80;1.95;;;9.70;99.90;;;;;;4091052;28;20102;-71
2023/02/03 08:30:19;;;;;;;10.13;2.15;;;9.70;99.90;;;;;;4090612;28;20593;-71
2023/02/03 08:32:21;;;;;;;6.70;1.73;;;9.80;99.90;;;;;;4067981;29;20056;-71
2023/02/03 08:34:22;;;;;;;7.13;2.05;;;9.70;99.90;;;;;;4092113;28;20039;-71
2023/02/03 08:36:22;;;;;;;9.38;2.08;;;9.70;99.90;;;;;;4093391;28;20051;-72
2023/02/03 08:38:23;;;;;;;9.60;2.50;;;9.80;99.90;;;;;;4095856;28;20445;-71
2023/02/03 08:40:23;;;;;;;5.60;1.98;;;9.80;99.90;;;;;;4092901;28;20038;-71
2023/02/03 08:42:24;;;;;;;6.30;2.08;;;9.80;99.90;;;;;;4092467;28;20035;-71
2023/02/03 08:44:25;;;;;;;8.85;2.30;;;9.80;99.90;;;;;;4089139;28;20067;-71
2023/02/03 08:46:25;;;;;;;11.82;2.50;;;9.80;99.90;;;;;;4084253;28;20614;-71
2023/02/03 08:48:26;;;;;;;8.48;2.53;;;9.80;99.90;;;;;;4069968;29;20407;-71
2023/02/03 08:50:27;;;;;;;7.50;1.92;;;9.80;99.90;;;;;;4084646;28;20043;-71
2023/02/03 08:52:27;;;;;;;4.13;1.80;;;9.80;99.90;;;;;;4082921;28;20085;-71
2023/02/03 08:54:28;;;;;;;10.15;2.50;;;9.80;99.90;;;;;;4052574;29;20045;-70
2023/02/03 08:56:28;;;;;;;11.13;1.95;;;9.80;99.90;;;;;;4091717;28;20122;-70
2023/02/03 08:58:29;;;;;;;6.40;2.17;;;9.80;99.90;;;;;;4091269;28;20027;-70
2023/02/03 09:00:29;;;;;;;5.55;2.40;;;9.80;99.90;;;;;;4088487;28;20049;-70
2023/02/03 09:02:30;;;;;;;4.18;1.70;;;9.80;99.90;;;;;;4090169;28;20044;-70
2023/02/03 09:04:32;;;;;;;4.43;1.80;;;9.80;99.90;;;;;;4087961;28;20486;-71
2023/02/03 09:06:33;;;;;;;7.57;2.22;;;9.80;99.90;;;;;;4090486;28;20073;-71
2023/02/03 09:08:34;;;;;;;5.45;2.05;;;9.90;99.90;;;;;;4089288;28;20043;-71
2023/02/03 09:10:35;;;;;;;7.15;2.13;;;9.90;99.90;;;;;;4090670;28;20479;-71
2023/02/03 09:12:35;;;;;;;6.57;1.98;;;9.90;99.90;;;;;;4077406;28;20044;-71
2023/02/03 09:14:36;;;;;;;8.02;1.90;;;9.80;99.90;;;;;;4074036;28;20692;-71
2023/02/03 09:16:37;;;;;;;8.13;2.20;;;9.90;99.90;;;;;;4089299;28;20402;-71
2023/02/03 09:18:38;;;;;;;4.05;1.65;;;9.90;99.90;;;;;;4090823;28;20043;-71
2023/02/03 09:20:39;;;;;;;6.95;2.15;;;9.90;99.90;;;;;;4091458;28;20035;-71
2023/02/03 09:22:39;;;;;;;4.97;2.05;;;9.90;99.90;;;;;;4090646;28;20031;-71
2023/02/03 09:24:40;;;;;;;7.20;2.05;;;9.90;99.90;;;;;;4074071;29;20122;-71
2023/02/03 09:26:41;;;;;;;7.50;1.77;;;9.90;99.90;;;;;;4092944;28;20066;-71
2023/02/03 09:28:41;;;;;;;6.85;2.42;;;9.90;99.90;;;;;;4090441;28;20063;-71
2023/02/03 09:30:42;;;;;;;7.50;2.28;;;9.90;99.90;;;;;;4088877;28;20034;-71
2023/02/03 09:32:43;;;;;;;5.85;1.92;;;9.90;99.90;;;;;;4090194;28;20396;-70
2023/02/03 09:34:44;;;;;;;10.55;2.03;;;9.90;99.90;;;;;;4089767;28;20039;-70
2023/02/03 09:36:45;;;;;;;6.82;2.08;;;9.90;99.90;;;;;;4086644;28;20074;-71
2023/02/03 09:38:45;;;;;;;4.80;1.60;;;9.90;99.90;;;;;;4088989;28;20039;-71
2023/02/03 09:40:51;;;;;;;5.28;1.75;;;9.90;99.90;;;;;;4089495;28;20553;-70
2023/02/03 09:43:21;;;;;;;9.18;2.15;;;9.90;99.90;;;;;;4087202;28;20040;-71
2023/02/03 09:45:26;;;;;;;11.10;2.30;;;9.90;99.90;;;;;;4081249;28;20054;-71
2023/02/03 09:47:35;;;;;;;6.53;2.53;;;9.90;99.90;;;;;;4092787;28;20031;-70
2023/02/03 09:49:46;;;;;;;12.15;2.67;;;10.00;99.90;;;;;;4092209;28;20031;-70
2023/02/03 09:52:01;;;;;;;8.85;2.95;;;9.90;99.90;;;;;;4089147;28;20446;-71
2023/02/03 09:54:23;;;;;;;8.02;2.10;;;10.00;99.90;;;;;;4089725;28;20399;-70
2023/02/03 09:56:35;;;;;;;12.10;2.30;;;9.90;99.90;;;;;;4090285;28;20047;-71
2023/02/03 09:58:36;;;;;;;6.93;2.25;;;10.00;99.90;;;;;;4091205;28;20060;-71
2023/02/03 10:00:43;;;;;;;8.38;2.28;;;10.00;99.90;;;;;;4088918;28;20036;-71
2023/02/03 10:02:54;;;;;;;8.75;2.10;;;10.00;99.90;;;;;;4090845;28;20023;-71
2023/02/03 10:05:05;;;;;;;8.40;2.53;;;10.00;99.90;;;;;;4087891;28;20082;-71
2023/02/03 10:07:24;;;;;;;9.25;2.10;;;10.00;99.90;;;;;;4092195;28;20402;-71
2023/02/03 10:09:33;;;;;;;8.25;2.53;;;10.00;99.90;;;;;;4091336;28;20051;-71
2023/02/03 10:12:00;;;;;;;8.00;2.38;;;10.00;99.90;;;;;;4088569;28;20050;-71
2023/02/03 10:14:07;;;;;;;7.45;2.55;;;10.00;99.90;;;;;;4091919;28;20031;-71
2023/02/03 10:16:32;;;;;;;13.05;2.33;;;10.00;99.90;;;;;;4090102;28;20392;-70
2023/02/03 10:18:44;;;;;;;9.60;2.45;;;10.00;99.90;;;;;;4076891;29;20039;-70
2023/02/03 10:20:49;;;;;;;7.07;2.63;;;10.00;99.90;;;;;;4087822;28;22622;-71
2023/02/03 10:22:54;;;;;;;12.57;2.60;;;10.10;99.90;;;;;;4092587;28;20048;-71
2023/02/03 10:24:55;;;;;;;12.05;2.60;;;10.10;99.90;;;;;;4087434;28;20070;-69
2023/02/03 10:26:56;;;;;;;10.25;2.53;;;10.10;99.90;;;;;;4090485;28;20490;-70
2023/02/03 10:29:03;;;;;;;6.00;1.92;;;10.10;99.90;;;;;;4088453;28;20118;-70
2023/02/03 10:31:15;;;;;;;8.77;2.25;;;10.20;99.90;;;;;;4087685;28;20032;-70
2023/02/03 10:33:18;;;;;;;7.47;2.40;;;10.20;99.90;;;;;;4093588;28;20047;-71
2023/02/03 10:35:23;;;;;;;10.20;2.40;;;10.20;99.90;;;;;;4091323;28;20055;-71
2023/02/03 10:37:31;;;;;;;8.43;2.53;;;10.20;99.90;;;;;;4093150;28;20066;-71
2023/02/03 10:39:46;;;;;;;6.45;2.10;;;10.20;99.90;;;;;;4088769;28;20043;-71
2023/02/03 10:41:47;;;;;;;10.63;2.65;;;10.20;99.90;;;;;;4089127;28;20065;-71
2023/02/03 10:43:50;;;;;;;9.43;2.20;;;10.20;99.90;;;;;;4087673;28;20117;-71
2023/02/03 10:45:51;;;;;;;6.47;1.85;;;10.30;99.90;;;;;;4089240;28;20046;-71
2023/02/03 10:47:54;;;;;;;10.35;2.15;;;10.30;99.90;;;;;;4096048;28;20406;-71